Time;durP1;ratioP1;P1;durP2;ratioP2;P2;SDS_P1;SDS_P2;PMS_P1;PMS_P2;Temp;Humidity;BMP_temperature;BMP_pressure;BME280_temperature;BME280_humidity;BME280_pressure;Samples;Min_cycle;Max_cycle;Signal;HPM_P1;HPM_P2
2022/01/14 00:01:34;;;;;;;;;;;;;;;10.62;68.65;103876.81;5063668;28;19920;-83
2022/01/14 00:03:59;;;;;;;;;;;;;;;10.47;68.66;103868.69;5062848;28;19917;-82
2022/01/14 00:06:24;;;;;;;;;;;;;;;10.71;68.97;103865.09;5061758;28;20313;-83
2022/01/14 00:08:50;;;;;;;;;;;;;;;10.09;70.88;103869.47;5061196;28;19923;-83
2022/01/14 00:11:17;;;;;;;;;;;;;;;10.33;68.63;103860.56;5079793;28;20407;-83
2022/01/14 00:13:52;;;;;;;;;;;;;;;9.89;68.77;103867.59;5062545;28;19916;-83
2022/01/14 00:16:19;;;;;;;;;;;;;;;9.94;72.20;103855.00;5062461;28;19971;-84
2022/01/14 00:18:44;;;;;;;;;;;;;;;11.25;66.21;103839.78;5062763;28;19927;-83
2022/01/14 00:21:10;;;;;;;;;;;;;;;10.57;67.73;103840.72;5061944;28;19917;-83
2022/01/14 00:23:39;;;;;;;;;;;;;;;11.77;63.55;103839.56;5079884;28;19916;-83
2022/01/14 00:31:54;;;;;;;;;;;;;;;10.68;68.51;103831.72;5079501;28;19939;-83
2022/01/14 00:34:20;;;;;;;;;;;;;;;11.26;65.06;103820.81;5061842;28;20016;-83
2022/01/14 00:36:46;;;;;;;;;;;;;;;11.79;61.74;103810.66;5062123;28;19952;-83
2022/01/14 00:39:13;;;;;;;;;;;;;;;10.11;64.80;103814.50;5062228;28;20382;-84
2022/01/14 00:41:38;;;;;;;;;;;;;;;10.37;68.95;103808.25;5061626;28;19924;-81
2022/01/14 00:44:09;;;;;;;;;;;;;;;9.99;69.17;103818.94;5078942;28;20431;-83
2022/01/14 00:46:34;;;;;;;;;;;;;;;9.03;73.34;103815.81;5061610;28;20370;-83
2022/01/14 00:49:00;;;;;;;;;;;;;;;9.84;71.01;103803.56;5062041;28;19916;-83
2022/01/14 00:51:25;;;;;;;;;;;;;;;9.08;71.92;103811.34;5079525;28;19925;-83
2022/01/14 00:53:51;;;;;;;;;;;;;;;9.27;72.88;103808.72;5079763;28;19916;-81
2022/01/14 00:56:30;;;;;;;;;;;;;;;9.66;73.06;103805.34;5068447;28;19916;-83
2022/01/14 00:59:14;;;;;;;;;;;;;;;9.29;73.83;103804.25;5068862;28;19920;-82
2022/01/14 01:01:44;;;;;;;;;;;;;;;9.31;72.31;103807.88;5068099;28;19916;-83
2022/01/14 01:04:10;;;;;;;;;;;;;;;9.58;71.96;103802.56;5085849;28;19970;-82
2022/01/14 01:06:35;;;;;;;;;;;;;;;9.98;71.30;103801.84;5068197;28;19955;-82
2022/01/14 01:09:01;;;;;;;;;;;;;;;9.45;70.67;103794.41;5067448;28;19916;-82
2022/01/14 01:11:32;;;;;;;;;;;;;;;9.98;69.10;103793.72;5067218;28;19938;-83
2022/01/14 01:14:06;;;;;;;;;;;;;;;9.45;71.00;103794.41;5067875;28;20038;-81
2022/01/14 01:16:31;;;;;;;;;;;;;;;10.04;69.45;103785.63;5086083;28;19916;-82
2022/01/14 01:18:57;;;;;;;;;;;;;;;9.35;71.96;103793.50;5068483;28;20314;-81
2022/01/14 01:21:22;;;;;;;;;;;;;;;9.91;70.79;103794.59;5068182;28;19912;-82
2022/01/14 01:23:47;;;;;;;;;;;;;;;10.30;68.34;103792.88;5087466;28;20291;-84
2022/01/14 01:26:19;;;;;;;;;;;;;;;10.43;65.64;103792.00;5088273;28;20002;-83
2022/01/14 01:31:48;;;;;;;;;;;;;;;9.78;69.50;103771.13;4984971;28;19921;-83
2022/01/14 01:34:14;;;;;;;;;;;;;;;10.21;66.49;103765.81;4985078;28;19918;-83
2022/01/14 01:36:40;;;;;;;;;;;;;;;9.69;70.01;103772.00;5031234;28;19932;-82
2022/01/14 01:39:07;;;;;;;;;;;;;;;10.44;66.25;103768.53;5068072;28;19923;-83
2022/01/14 01:41:34;;;;;;;;;;;;;;;9.94;68.67;103775.66;5068134;28;20007;-82
2022/01/14 01:44:00;;;;;;;;;;;;;;;10.49;65.45;103769.44;5084910;28;19920;-83
2022/01/14 01:46:25;;;;;;;;;;;;;;;10.44;66.45;103773.94;5067609;28;19986;-83
2022/01/14 01:48:51;;;;;;;;;;;;;;;10.90;63.92;103773.91;5067552;28;19923;-83
2022/01/14 01:51:17;;;;;;;;;;;;;;;9.86;66.86;103781.06;5068765;28;19916;-84
2022/01/14 01:53:42;;;;;;;;;;;;;;;9.64;70.78;103781.91;5085336;28;19916;-82
2022/01/14 01:56:07;;;;;;;;;;;;;;;9.47;71.37;103784.53;5086911;28;19924;-83
2022/01/14 01:58:32;;;;;;;;;;;;;;;10.14;68.84;103781.09;5068776;28;19962;-83
2022/01/14 02:00:57;;;;;;;;;;;;;;;10.76;65.36;103786.56;5069251;28;20251;-84
2022/01/14 02:03:23;;;;;;;;;;;;;;;10.48;67.75;103780.25;5087014;28;19942;-84
2022/01/14 02:05:49;;;;;;;;;;;;;;;10.10;67.32;103779.31;5067480;28;19974;-83
2022/01/14 02:08:14;;;;;;;;;;;;;;;10.64;65.54;103780.28;5064733;28;19927;-83
2022/01/14 02:10:39;;;;;;;;;;;;;;;9.62;69.96;103787.28;5062971;28;19916;-83
2022/01/14 02:13:06;;;;;;;;;;;;;;;10.58;66.05;103777.56;5082807;28;19924;-83
2022/01/14 02:23:25;;;;;;;;;;;;;;;10.47;66.53;103765.84;5082297;28;19927;-82
2022/01/14 02:25:51;;;;;;;;;;;;;;;10.17;67.10;103769.41;5063864;28;19916;-83
2022/01/14 02:28:17;;;;;;;;;;;;;;;10.50;66.56;103762.22;5063730;28;20004;-82
2022/01/14 02:30:44;;;;;;;;;;;;;;;9.49;71.21;103770.13;5081247;28;19939;-83
2022/01/14 02:33:10;;;;;;;;;;;;;;;10.16;67.72;103762.16;5063710;28;19959;-83
2022/01/14 02:35:36;;;;;;;;;;;;;;;9.28;72.51;103768.22;5062419;28;19921;-82
2022/01/14 02:38:01;;;;;;;;;;;;;;;9.29;70.73;103777.25;5063193;28;19917;-83
2022/01/14 02:40:27;;;;;;;;;;;;;;;9.47;70.74;103779.13;5081178;28;19923;-83
2022/01/14 02:42:54;;;;;;;;;;;;;;;8.80;73.40;103781.47;5062445;28;19924;-83
2022/01/14 02:45:21;;;;;;;;;;;;;;;8.65;73.08;103781.31;5063317;28;19942;-84
2022/01/14 02:47:47;;;;;;;;;;;;;;;9.21;72.09;103783.50;5063619;28;19917;-82
2022/01/14 02:50:16;;;;;;;;;;;;;;;9.94;67.62;103784.69;5064539;28;19939;-84
2022/01/14 02:55:19;;;;;;;;;;;;;;;9.12;69.43;103793.34;5081437;28;19916;-84
2022/01/14 02:57:45;;;;;;;;;;;;;;;10.48;64.62;103796.50;5081709;28;19916;-84
2022/01/14 03:00:11;;;;;;;;;;;;;;;8.91;70.98;103802.19;5063760;28;19923;-83
2022/01/14 03:02:36;;;;;;;;;;;;;;;9.31;71.48;103786.25;5064124;28;19916;-83
2022/01/14 03:05:02;;;;;;;;;;;;;;;10.17;66.66;103778.41;5062419;28;20020;-83
2022/01/14 03:07:28;;;;;;;;;;;;;;;10.28;64.72;103784.75;5080528;28;19916;-83
2022/01/14 03:09:53;;;;;;;;;;;;;;;9.84;65.87;103792.75;5063664;28;19917;-83
2022/01/14 03:12:19;;;;;;;;;;;;;;;10.40;64.56;103788.38;5062985;28;19924;-82
2022/01/14 03:14:44;;;;;;;;;;;;;;;9.57;67.59;103806.19;5080972;28;19924;-83
2022/01/14 03:17:09;;;;;;;;;;;;;;;10.98;62.43;103801.00;5061780;28;20202;-83
2022/01/14 03:19:34;;;;;;;;;;;;;;;9.57;67.39;103806.19;5060894;28;19920;-83
2022/01/14 03:27:09;;;;;;;;;;;;;;;10.10;66.09;103776.63;5078654;28;19916;-83
2022/01/14 03:29:35;;;;;;;;;;;;;;;10.15;65.16;103763.97;5061055;28;19943;-83
2022/01/14 03:32:03;;;;;;;;;;;;;;;9.73;65.38;103769.28;5076452;28;20328;-82
2022/01/14 03:34:28;;;;;;;;;;;;;;;10.33;63.83;103775.75;5079832;28;19952;-82
2022/01/14 03:36:53;;;;;;;;;;;;;;;9.91;64.60;103772.97;5062271;28;19927;-83
2022/01/14 03:39:19;;;;;;;;;;;;;;;9.02;66.88;103774.38;5061471;28;19924;-82
2022/01/14 03:41:44;;;;;;;;;;;;;;;9.14;69.70;103768.16;5060461;28;20363;-82
2022/01/14 03:44:10;;;;;;;;;;;;;;;9.07;68.58;103766.31;5060464;28;20366;-82
2022/01/14 03:46:35;;;;;;;;;;;;;;;9.19;68.32;103762.78;5060061;28;19927;-82
2022/01/14 03:49:00;;;;;;;;;;;;;;;9.86;66.61;103766.66;5077193;28;19928;-82
2022/01/14 03:51:27;;;;;;;;;;;;;;;10.29;64.82;103756.75;5061748;28;19927;-82
2022/01/14 03:53:52;;;;;;;;;;;;;;;9.35;66.56;103759.25;5062178;28;19959;-81
2022/01/14 03:56:18;;;;;;;;;;;;;;;9.28;67.33;103767.31;5080320;28;19917;-83
2022/01/14 03:58:43;;;;;;;;;;;;;;;9.66;66.56;103759.38;5080788;28;19947;-82
2022/01/14 04:01:09;;;;;;;;;;;;;;;9.33;68.47;103760.13;5062605;28;20019;-83
2022/01/14 04:03:35;;;;;;;;;;;;;;;10.14;65.26;103759.47;5062357;28;19921;-84
2022/01/14 04:06:01;;;;;;;;;;;;;;;9.66;65.54;103755.75;5062536;28;20407;-83
2022/01/14 04:08:26;;;;;;;;;;;;;;;9.21;67.39;103756.50;5081533;28;19926;-83
2022/01/14 04:10:53;;;;;;;;;;;;;;;9.22;67.28;103750.22;5063737;28;19988;-84
2022/01/14 04:13:23;;;;;;;;;;;;;;;9.16;68.56;103742.06;5064380;28;19939;-83
2022/01/14 04:15:49;;;;;;;;;;;;;;;8.96;70.48;103743.75;5066129;28;19967;-83
2022/01/14 04:18:16;;;;;;;;;;;;;;;8.29;72.73;103743.25;5064574;28;19936;-83
2022/01/14 04:20:43;;;;;;;;;;;;;;;8.92;71.36;103742.81;5062917;28;19956;-83
2022/01/14 04:23:11;;;;;;;;;;;;;;;8.13;72.59;103746.69;5063562;28;19916;-83
2022/01/14 04:25:37;;;;;;;;;;;;;;;8.25;72.31;103738.72;5063534;28;19916;-83
2022/01/14 04:28:03;;;;;;;;;;;;;;;7.84;71.82;103739.22;5082324;28;19928;-82
2022/01/14 04:30:29;;;;;;;;;;;;;;;8.65;70.96;103721.94;5062618;28;19966;-82
2022/01/14 04:32:54;;;;;;;;;;;;;;;7.99;74.31;103725.00;5063760;28;19920;-83
2022/01/14 04:35:19;;;;;;;;;;;;;;;9.25;69.43;103724.97;5081554;28;19923;-82
2022/01/14 04:37:44;;;;;;;;;;;;;;;9.09;68.46;103712.31;5063002;28;19920;-83
2022/01/14 04:40:10;;;;;;;;;;;;;;;9.39;66.92;103708.81;5062554;28;19924;-83
2022/01/14 04:42:37;;;;;;;;;;;;;;;9.49;67.13;103697.16;5063333;28;19955;-83
2022/01/14 04:45:03;;;;;;;;;;;;;;;9.43;67.59;103699.84;5063375;28;19920;-83
2022/01/14 04:47:44;;;;;;;;;;;;;;;9.20;68.00;103697.97;5063553;28;20260;-83
2022/01/14 04:50:10;;;;;;;;;;;;;;;9.32;67.61;103693.50;5065739;28;19992;-82
2022/01/14 04:52:35;;;;;;;;;;;;;;;9.07;67.76;103706.00;5081333;28;19920;-83
2022/01/14 04:55:01;;;;;;;;;;;;;;;9.47;67.83;103700.78;5063833;28;19985;-83
2022/01/14 04:57:26;;;;;;;;;;;;;;;9.18;67.63;103693.47;5063289;28;19921;-83
2022/01/14 04:59:51;;;;;;;;;;;;;;;9.19;67.71;103695.25;5062760;28;19917;-82
2022/01/14 05:02:16;;;;;;;;;;;;;;;8.90;69.25;103690.63;5062411;28;19916;-83
2022/01/14 05:04:43;;;;;;;;;;;;;;;8.67;70.65;103709.38;5062449;28;20336;-83
2022/01/14 05:07:14;;;;;;;;;;;;;;;8.80;70.12;103691.47;5062463;28;19970;-82
2022/01/14 05:09:43;;;;;;;;;;;;;;;7.78;73.24;103694.25;5063228;28;19916;-83
2022/01/14 05:12:10;;;;;;;;;;;;;;;7.78;75.11;103691.53;5062991;28;19921;-83
2022/01/14 05:14:38;;;;;;;;;;;;;;;8.91;71.56;103694.22;5062184;28;19954;-83
2022/01/14 05:17:03;;;;;;;;;;;;;;;9.66;67.53;103674.66;5062121;28;19948;-83
2022/01/14 05:19:29;;;;;;;;;;;;;;;10.21;64.25;103669.28;5060493;28;19923;-83
2022/01/14 05:21:54;;;;;;;;;;;;;;;9.33;68.43;103666.50;5061010;28;19920;-83
2022/01/14 05:24:19;;;;;;;;;;;;;;;10.11;63.19;103673.81;5078292;28;20011;-83
2022/01/14 05:26:45;;;;;;;;;;;;;;;8.51;68.90;103658.03;5060039;28;19921;-83
2022/01/14 05:29:10;;;;;;;;;;;;;;;9.50;67.21;103653.03;5059624;28;20317;-83
2022/01/14 05:31:42;;;;;;;;;;;;;;;9.10;67.91;103658.28;5058286;28;19927;-83
2022/01/14 05:34:08;;;;;;;;;;;;;;;9.28;68.50;103657.47;5057261;28;19923;-84
2022/01/14 05:36:33;;;;;;;;;;;;;;;9.22;68.13;103668.25;5056496;28;19916;-84
2022/01/14 05:38:58;;;;;;;;;;;;;;;8.94;68.94;103672.66;5057400;28;20075;-83
2022/01/14 05:41:23;;;;;;;;;;;;;;;9.48;66.08;103667.41;5058872;28;19916;-83
2022/01/14 05:43:48;;;;;;;;;;;;;;;9.48;66.95;103672.81;5061456;28;19924;-83
2022/01/14 05:46:14;;;;;;;;;;;;;;;8.81;68.92;103677.06;5079856;28;19920;-83
2022/01/14 05:48:39;;;;;;;;;;;;;;;8.84;70.02;103672.59;5061844;28;19916;-83
2022/01/14 05:51:04;;;;;;;;;;;;;;;9.37;68.46;103664.69;5078373;28;19925;-83
2022/01/14 05:53:29;;;;;;;;;;;;;;;10.45;63.08;103673.81;5060236;28;20362;-84
2022/01/14 05:55:55;;;;;;;;;;;;;;;9.89;63.37;103661.19;5061017;28;19916;-83
2022/01/14 05:58:20;;;;;;;;;;;;;;;9.62;65.50;103664.75;5061273;28;19959;-83
2022/01/14 06:00:45;;;;;;;;;;;;;;;9.44;65.34;103671.94;5061347;28;19979;-82
2022/01/14 06:03:10;;;;;;;;;;;;;;;8.73;68.90;103668.06;5061433;28;19913;-82
2022/01/14 06:05:35;;;;;;;;;;;;;;;9.01;68.08;103677.16;5078368;28;19923;-81
2022/01/14 06:08:00;;;;;;;;;;;;;;;8.95;69.39;103674.44;5059689;28;20326;-83
2022/01/14 06:10:26;;;;;;;;;;;;;;;9.44;65.42;103677.34;5060886;28;20391;-82
2022/01/14 06:12:51;;;;;;;;;;;;;;;9.93;63.23;103680.13;5061793;28;19939;-82
2022/01/14 06:15:17;;;;;;;;;;;;;;;9.87;64.36;103672.00;5078882;28;19931;-83
2022/01/14 06:17:42;;;;;;;;;;;;;;;9.44;65.19;103666.53;5061298;28;19959;-82
2022/01/14 06:20:07;;;;;;;;;;;;;;;9.32;66.47;103670.09;5060775;28;19943;-82
2022/01/14 06:22:35;;;;;;;;;;;;;;;9.63;63.92;103661.16;5060592;28;20277;-86
2022/01/14 06:25:00;;;;;;;;;;;;;;;9.73;63.16;103668.38;5078167;28;20011;-83
2022/01/14 06:27:26;;;;;;;;;;;;;;;9.10;66.07;103662.81;5060800;28;19964;-83
2022/01/14 06:29:51;;;;;;;;;;;;;;;9.28;66.47;103670.06;5061492;28;19924;-84
2022/01/14 06:32:16;;;;;;;;;;;;;;;9.46;64.99;103666.53;5079045;28;19924;-83
2022/01/14 06:34:41;;;;;;;;;;;;;;;9.73;63.63;103665.69;5061056;28;19917;-83
2022/01/14 06:37:07;;;;;;;;;;;;;;;9.92;62.65;103662.09;5060422;28;19923;-82
2022/01/14 06:39:32;;;;;;;;;;;;;;;9.87;62.44;103672.00;5060598;28;19916;-82
2022/01/14 06:41:57;;;;;;;;;;;;;;;9.75;62.08;103671.97;5060105;28;19916;-82
2022/01/14 06:44:22;;;;;;;;;;;;;;;9.99;61.52;103678.31;5060007;28;19951;-83
2022/01/14 06:46:47;;;;;;;;;;;;;;;10.35;59.52;103681.94;5060068;28;19962;-82
2022/01/14 06:49:13;;;;;;;;;;;;;;;10.09;60.64;103691.84;5061211;28;19927;-81
2022/01/14 06:51:38;;;;;;;;;;;;;;;9.72;61.11;103691.81;5060857;28;19916;-81
2022/01/14 06:54:03;;;;;;;;;;;;;;;9.92;61.79;103705.34;5060798;28;19916;-84
2022/01/14 06:56:28;;;;;;;;;;;;;;;9.85;62.47;103706.25;5060896;28;19928;-85
2022/01/14 06:58:53;;;;;;;;;;;;;;;10.29;59.97;103705.34;5079302;28;19916;-82
2022/01/14 07:01:19;;;;;;;;;;;;;;;9.85;62.77;103705.34;5078659;28;19975;-84
2022/01/14 07:03:44;;;;;;;;;;;;;;;10.67;59.14;103706.25;5079599;28;19939;-83
2022/01/14 07:06:10;;;;;;;;;;;;;;;10.33;59.42;103697.25;5079301;28;19916;-83
2022/01/14 07:08:35;;;;;;;;;;;;;;;10.31;60.47;103701.75;5077751;28;19927;-84
2022/01/14 07:11:01;;;;;;;;;;;;;;;9.72;62.20;103686.41;5076544;28;19917;-83
2022/01/14 07:13:26;;;;;;;;;;;;;;;10.06;60.19;103693.66;5059902;28;19924;-82
2022/01/14 07:15:51;;;;;;;;;;;;;;;10.21;60.86;103699.06;5060649;28;20366;-82
2022/01/14 07:18:17;;;;;;;;;;;;;;;9.87;61.22;103696.34;5078303;28;19920;-82
2022/01/14 07:20:42;;;;;;;;;;;;;;;9.98;62.28;103698.13;5077672;28;19956;-82
2022/01/14 07:23:07;;;;;;;;;;;;;;;9.88;62.06;103703.53;5058842;28;19923;-82
2022/01/14 07:25:32;;;;;;;;;;;;;;;9.30;62.88;103704.31;5058371;28;19923;-81
2022/01/14 07:27:58;;;;;;;;;;;;;;;9.49;63.69;103705.25;5056990;28;20488;-83
2022/01/14 07:30:23;;;;;;;;;;;;;;;9.75;62.42;103704.41;5057952;28;19923;-83
2022/01/14 07:32:49;;;;;;;;;;;;;;;10.22;60.82;103691.81;5059876;28;19923;-82
2022/01/14 07:35:14;;;;;;;;;;;;;;;9.39;63.87;103708.81;5078384;28;19939;-83
2022/01/14 07:37:39;;;;;;;;;;;;;;;9.44;64.32;103712.47;5059900;28;19967;-83
2022/01/14 07:40:07;;;;;;;;;;;;;;;9.67;62.11;103714.31;5060806;28;19974;-83
2022/01/14 07:42:33;;;;;;;;;;;;;;;9.53;63.79;103700.78;5059310;28;19925;-83
2022/01/14 07:44:59;;;;;;;;;;;;;;;9.56;63.76;103712.50;5059757;28;19985;-83
2022/01/14 07:47:26;;;;;;;;;;;;;;;10.19;61.51;103714.41;5061065;28;20425;-83
2022/01/14 07:49:53;;;;;;;;;;;;;;;9.98;61.04;103709.88;5078397;28;19922;-83
2022/01/14 07:52:18;;;;;;;;;;;;;;;9.93;62.31;103708.94;5059108;28;19920;-82
2022/01/14 07:54:43;;;;;;;;;;;;;;;9.75;62.93;103705.34;5060706;28;19925;-83
2022/01/14 07:57:08;;;;;;;;;;;;;;;9.86;62.38;103707.16;5060432;28;19916;-82
2022/01/14 07:59:35;;;;;;;;;;;;;;;10.06;62.58;103715.28;5076869;28;19920;-83
2022/01/14 08:02:00;;;;;;;;;;;;;;;9.61;63.27;103714.31;5059622;28;20366;-83
2022/01/14 08:04:26;;;;;;;;;;;;;;;10.26;62.18;103707.16;5058973;28;20007;-82
2022/01/14 08:06:54;;;;;;;;;;;;;;;10.16;62.39;103721.59;5059576;28;20389;-85
2022/01/14 08:09:20;;;;;;;;;;;;;;;10.58;60.39;103709.91;5059864;28;19932;-83
2022/01/14 08:11:46;;;;;;;;;;;;;;;9.79;63.35;103702.63;5059387;28;19917;-81
2022/01/14 08:14:12;;;;;;;;;;;;;;;9.87;62.88;103701.75;5077020;28;19916;-81
2022/01/14 08:16:37;;;;;;;;;;;;;;;10.17;63.02;103715.28;5058889;28;19928;-82
2022/01/14 08:19:03;;;;;;;;;;;;;;;10.22;62.06;103711.69;5058144;28;19924;-82
2022/01/14 08:21:28;;;;;;;;;;;;;;;9.65;63.73;103713.44;5059943;28;19921;-83
2022/01/14 08:23:53;;;;;;;;;;;;;;;9.84;64.34;103712.53;5058958;28;20280;-83
2022/01/14 08:26:19;;;;;;;;;;;;;;;10.24;62.50;103718.00;5058422;28;20023;-85
2022/01/14 08:28:44;;;;;;;;;;;;;;;9.88;63.06;103726.97;5058333;28;19917;-84
2022/01/14 08:31:09;;;;;;;;;;;;;;;10.44;61.14;103725.25;5057872;28;19916;-85
2022/01/14 08:33:35;;;;;;;;;;;;;;;11.33;58.56;103719.56;5075428;28;19920;-84
2022/01/14 08:36:00;;;;;;;;;;;;;;;10.78;60.00;103719.78;5061500;28;19916;-84
2022/01/14 08:38:26;;;;;;;;;;;;;;;11.01;59.72;103710.69;5057720;28;20011;-84
2022/01/14 08:40:52;;;;;;;;;;;;;;;10.89;59.29;103717.94;5076815;28;20293;-83
2022/01/14 08:43:17;;;;;;;;;;;;;;;11.25;58.25;103724.13;5058661;28;19939;-84
2022/01/14 08:45:42;;;;;;;;;;;;;;;10.69;59.55;103728.81;5058123;28;19917;-83
2022/01/14 08:48:08;;;;;;;;;;;;;;;10.58;60.46;103733.34;5058388;28;20290;-84
2022/01/14 08:50:35;;;;;;;;;;;;;;;10.36;60.76;103727.94;5076406;28;19927;-84
2022/01/14 08:53:00;;;;;;;;;;;;;;;10.53;61.07;103719.81;5076912;28;19917;-84
2022/01/14 08:55:26;;;;;;;;;;;;;;;10.77;60.01;103723.38;5077006;28;20290;-84
2022/01/14 08:57:52;;;;;;;;;;;;;;;10.62;61.06;103710.78;5058379;28;19917;-84
2022/01/14 09:00:18;;;;;;;;;;;;;;;10.66;61.19;103714.38;5075554;28;19917;-84
2022/01/14 09:02:43;;;;;;;;;;;;;;;11.02;60.50;103713.41;5057748;28;19924;-83
2022/01/14 09:05:09;;;;;;;;;;;;;;;11.38;58.11;103710.53;5057161;28;20381;-83
2022/01/14 09:07:34;;;;;;;;;;;;;;;10.76;61.33;103718.88;5056576;28;19917;-84
2022/01/14 09:09:59;;;;;;;;;;;;;;;10.50;62.08;103714.41;5075445;28;19923;-83
2022/01/14 09:12:25;;;;;;;;;;;;;;;11.26;60.75;103706.97;5058101;28;19929;-84
2022/01/14 09:14:50;;;;;;;;;;;;;;;11.06;60.17;103701.63;5057832;28;19956;-83
2022/01/14 09:17:17;;;;;;;;;;;;;;;11.38;59.41;103707.81;5061754;28;19927;-83
2022/01/14 09:19:42;;;;;;;;;;;;;;;10.89;60.67;103723.34;5062585;28;20020;-84
2022/01/14 09:22:08;;;;;;;;;;;;;;;11.75;58.92;103704.91;5061402;28;19963;-83
2022/01/14 09:24:34;;;;;;;;;;;;;;;11.38;59.34;103715.94;5079699;28;19916;-84
2022/01/14 09:26:59;;;;;;;;;;;;;;;11.69;58.82;103722.09;5062019;28;20378;-82
2022/01/14 09:29:25;;;;;;;;;;;;;;;11.94;57.63;103721.97;5061894;28;19974;-82
2022/01/14 09:31:50;;;;;;;;;;;;;;;12.16;57.28;103712.75;5061604;28;19950;-83
2022/01/14 09:34:15;;;;;;;;;;;;;;;12.12;57.25;103708.25;5080382;28;19934;-82
2022/01/14 09:36:40;;;;;;;;;;;;;;;12.17;57.44;103710.97;5062491;28;20266;-81
2022/01/14 09:39:07;;;;;;;;;;;;;;;12.65;56.41;103705.97;5078737;28;19916;-83
2022/01/14 09:41:32;;;;;;;;;;;;;;;12.65;55.73;103716.84;5062014;28;20512;-85
2022/01/14 09:43:57;;;;;;;;;;;;;;;12.75;56.49;103715.81;5061610;28;19928;-84
2022/01/14 09:46:23;;;;;;;;;;;;;;;12.60;57.18;103710.53;5062532;28;20057;-83
2022/01/14 09:48:52;;;;;;;;;;;;;;;12.31;56.95;103717.16;5061925;28;19916;-82
2022/01/14 09:51:18;;;;;;;;;;;;;;;12.01;57.42;103715.59;5080134;28;19904;-83
2022/01/14 09:53:43;;;;;;;;;;;;;;;12.34;58.06;103717.13;5062185;28;19924;-83
2022/01/14 09:56:08;;;;;;;;;;;;;;;13.03;55.10;103703.72;5078707;28;19917;-81
2022/01/14 09:58:40;;;;;;;;;;;;;;;13.43;54.46;103716.84;5060756;28;19916;-83
2022/01/14 10:01:13;;;;;;;;;;;;;;;13.49;55.15;103708.59;5079344;28;19956;-82
2022/01/14 10:03:49;;;;;;;;;;;;;;;13.50;54.48;103709.50;5056746;28;19928;-83
2022/01/14 10:06:33;;;;;;;;;;;;;;;13.66;54.60;103708.34;5060724;28;19962;-85
2022/01/14 10:09:04;;;;;;;;;;;;;;;13.69;54.40;103712.84;5078859;28;20015;-84
2022/01/14 10:11:30;;;;;;;;;;;;;;;13.51;54.89;103711.31;5078096;28;19926;-83
2022/01/14 10:14:03;;;;;;;;;;;;;;;13.27;56.17;103710.66;5078109;28;19984;-84
2022/01/14 10:16:28;;;;;;;;;;;;;;;13.48;55.15;103704.06;5078422;28;19916;-84
2022/01/14 10:18:53;;;;;;;;;;;;;;;13.98;54.15;103698.81;5060932;28;20286;-84
2022/01/14 10:21:18;;;;;;;;;;;;;;;14.25;53.59;103712.88;5061943;28;19916;-83
2022/01/14 10:23:45;;;;;;;;;;;;;;;14.38;53.63;103714.47;5061015;28;19916;-83
2022/01/14 10:26:11;;;;;;;;;;;;;;;14.31;53.14;103718.22;5078285;28;19931;-82
2022/01/14 10:28:37;;;;;;;;;;;;;;;14.48;53.24;103702.47;5059901;28;20003;-83
2022/01/14 10:31:02;;;;;;;;;;;;;;;14.53;52.30;103710.56;5061045;28;19967;-83
2022/01/14 10:33:29;;;;;;;;;;;;;;;13.46;54.95;103712.25;5060625;28;19970;-84
2022/01/14 10:35:54;;;;;;;;;;;;;;;13.51;55.74;103704.03;5058963;28;19923;-82
2022/01/14 10:38:21;;;;;;;;;;;;;;;14.18;54.64;103703.94;5058107;28;19917;-82
2022/01/14 10:40:49;;;;;;;;;;;;;;;14.43;53.15;103715.31;5059659;28;20317;-83
2022/01/14 10:43:15;;;;;;;;;;;;;;;13.71;54.86;103711.00;5077629;28;19985;-83
2022/01/14 10:45:43;;;;;;;;;;;;;;;13.57;55.53;103722.09;5060531;28;19947;-83
2022/01/14 10:48:12;;;;;;;;;;;;;;;14.06;54.46;103715.03;5061166;28;20374;-83
2022/01/14 10:50:42;;;;;;;;;;;;;;;13.51;55.49;103714.03;5077273;28;20015;-83
2022/01/14 10:53:17;;;;;;;;;;;;;;;13.72;55.41;103718.25;5061407;28;20021;-83
2022/01/14 10:55:50;;;;;;;;;;;;;;;13.51;55.43;103708.59;5061561;28;19927;-82
2022/01/14 10:58:25;;;;;;;;;;;;;;;13.82;54.39;103709.94;5059843;28;19923;-83
2022/01/14 11:01:01;;;;;;;;;;;;;;;14.35;53.28;103707.25;5060435;28;19927;-83
2022/01/14 11:03:41;;;;;;;;;;;;;;;14.06;54.54;103707.75;5060230;28;20333;-82
2022/01/14 11:06:26;;;;;;;;;;;;;;;14.14;54.12;103696.72;5060103;28;19927;-83
2022/01/14 11:08:55;;;;;;;;;;;;;;;14.82;52.30;103704.59;5060763;28;20007;-83
2022/01/14 11:11:20;;;;;;;;;;;;;;;14.84;51.82;103691.84;5060013;28;19916;-83
2022/01/14 11:13:46;;;;;;;;;;;;;;;14.28;53.57;103685.59;5061199;28;19966;-83
2022/01/14 11:16:11;;;;;;;;;;;;;;;14.16;53.81;103684.91;5060881;28;19917;-83
2022/01/14 11:18:38;;;;;;;;;;;;;;;14.80;52.40;103695.56;5060010;28;19962;-81
2022/01/14 11:23:47;;;;;;;;;;;;;;;14.02;53.53;103689.66;5075633;28;20018;-83
2022/01/14 11:26:16;;;;;;;;;;;;;;;13.76;54.22;103695.53;5075964;28;20362;-83
2022/01/14 11:28:42;;;;;;;;;;;;;;;13.65;54.52;103687.53;5058843;28;19970;-83
2022/01/14 11:31:26;;;;;;;;;;;;;;;13.74;53.58;103687.41;5076857;28;19910;-82
2022/01/14 11:33:51;;;;;;;;;;;;;;;14.23;52.86;103679.34;5058642;28;19964;-83
2022/01/14 11:36:16;;;;;;;;;;;;;;;14.13;53.03;103690.41;5076723;28;19925;-82
2022/01/14 11:38:43;;;;;;;;;;;;;;;13.83;53.67;103692.69;5058659;28;20243;-83
2022/01/14 11:41:09;;;;;;;;;;;;;;;13.57;54.14;103675.84;5057345;28;20263;-82
2022/01/14 11:44:04;;;;;;;;;;;;;;;13.54;54.22;103681.34;5058337;28;19928;-83
2022/01/14 11:46:32;;;;;;;;;;;;;;;13.58;54.26;103680.38;5057394;28;19916;-81
2022/01/14 11:48:59;;;;;;;;;;;;;;;13.14;55.41;103692.75;5059475;28;19916;-82
2022/01/14 11:51:24;;;;;;;;;;;;;;;13.22;54.87;103678.09;5059313;28;20340;-81
2022/01/14 11:54:07;;;;;;;;;;;;;;;14.19;52.97;103683.91;5060039;28;19924;-81
2022/01/14 11:56:33;;;;;;;;;;;;;;;14.57;51.89;103681.44;5059674;28;19974;-83
2022/01/14 11:59:16;;;;;;;;;;;;;;;14.95;50.92;103677.09;5077633;28;19916;-84
2022/01/14 12:01:42;;;;;;;;;;;;;;;14.70;51.07;103678.50;5077238;28;19921;-83
2022/01/14 12:04:07;;;;;;;;;;;;;;;13.96;51.92;103678.88;5075778;28;19917;-82
2022/01/14 12:06:50;;;;;;;;;;;;;;;13.93;52.71;103676.22;5057788;28;19916;-83
2022/01/14 12:09:16;;;;;;;;;;;;;;;14.40;51.50;103674.47;5058115;28;19920;-83
2022/01/14 12:11:42;;;;;;;;;;;;;;;13.37;53.90;103682.47;5076389;28;19924;-82
2022/01/14 12:14:07;;;;;;;;;;;;;;;14.48;52.19;103682.53;5058759;28;19927;-83
2022/01/14 12:16:49;;;;;;;;;;;;;;;13.79;52.62;103676.44;5056690;28;19970;-83
2022/01/14 12:19:17;;;;;;;;;;;;;;;13.59;53.86;103680.34;5074967;28;19913;-84
2022/01/14 12:21:48;;;;;;;;;;;;;;;13.39;54.66;103679.72;5057900;28;19921;-83
2022/01/14 12:24:21;;;;;;;;;;;;;;;13.97;53.25;103676.13;5059670;28;19916;-83
2022/01/14 12:26:52;;;;;;;;;;;;;;;14.32;52.19;103673.72;5059987;28;19987;-84
2022/01/14 12:29:18;;;;;;;;;;;;;;;14.04;51.98;103670.56;5059027;28;19952;-84
2022/01/14 12:32:02;;;;;;;;;;;;;;;14.84;50.72;103669.13;5059539;28;20437;-86
2022/01/14 12:34:28;;;;;;;;;;;;;;;15.48;49.40;103677.75;5047525;28;20019;-84
2022/01/14 12:36:53;;;;;;;;;;;;;;;15.37;49.16;103668.94;5056015;28;19959;-85
2022/01/14 12:39:18;;;;;;;;;;;;;;;15.60;48.72;103666.53;5054777;28;19924;-86
2022/01/14 12:41:44;;;;;;;;;;;;;;;15.26;48.49;103665.53;5054799;28;19924;-87
2022/01/14 12:44:10;;;;;;;;;;;;;;;15.66;48.16;103660.03;5052688;28;20278;-84
2022/01/14 12:46:40;;;;;;;;;;;;;;;15.93;47.46;103663.06;5057053;28;19921;-86
2022/01/14 12:49:10;;;;;;;;;;;;;;;15.82;47.72;103652.44;5055520;28;20275;-83
2022/01/14 12:51:36;;;;;;;;;;;;;;;15.52;48.17;103657.66;5057303;28;19946;-83
2022/01/14 12:54:04;;;;;;;;;;;;;;;14.93;50.39;103657.13;5071232;28;19916;-83
2022/01/14 12:56:31;;;;;;;;;;;;;;;14.52;50.75;103657.91;5074201;28;19923;-83
2022/01/14 12:58:59;;;;;;;;;;;;;;;14.60;51.16;103667.75;5074033;28;19920;-83
2022/01/14 13:01:25;;;;;;;;;;;;;;;15.21;49.92;103665.63;5074775;28;19960;-83
2022/01/14 13:03:53;;;;;;;;;;;;;;;14.21;53.06;103663.03;5074438;28;19968;-84
2022/01/14 13:06:18;;;;;;;;;;;;;;;14.96;50.74;103657.06;5075355;28;20329;-84